Time;durP1;ratioP1;P1;durP2;ratioP2;P2;SDS_P1;SDS_P2;PMS_P1;PMS_P2;Temp;Humidity;BMP_temperature;BMP_pressure;BME280_temperature;BME280_humidity;BME280_pressure;Samples;Min_cycle;Max_cycle;Signal;HPM_P1;HPM_P2
2022/10/22 00:01:10;;;;;;;16.82;12.95;;;;;;;12.25;100.00;99880.77;2812990;81;21593;-85
2022/10/22 00:05:13;;;;;;;16.55;14.00;;;;;;;12.32;100.00;99890.36;2874299;81;21052;-85
2022/10/22 00:09:14;;;;;;;16.12;12.73;;;;;;;12.36;100.00;99889.89;2928015;80;21026;-85
2022/10/22 00:13:16;;;;;;;22.82;14.18;;;;;;;12.41;100.00;99890.80;2890116;80;21024;-85
2022/10/22 00:17:17;;;;;;;18.65;12.85;;;;;;;12.42;100.00;99893.81;2947583;79;21027;-85
2022/10/22 00:21:18;;;;;;;14.80;11.73;;;;;;;12.43;100.00;99878.14;2904455;79;21004;-85
2022/10/22 00:25:20;;;;;;;15.88;11.50;;;;;;;12.43;100.00;99873.67;2927157;80;21073;-85
2022/10/22 00:29:21;;;;;;;15.43;12.80;;;;;;;12.46;100.00;99867.69;2906695;80;21011;-85
2022/10/22 00:33:22;;;;;;;18.55;12.40;;;;;;;12.44;100.00;99865.16;2934084;80;21011;-85
2022/10/22 00:37:23;;;;;;;17.50;10.90;;;;;;;12.44;100.00;99865.16;2926895;80;21086;-85
2022/10/22 00:41:25;;;;;;;16.17;13.18;;;;;;;12.36;100.00;99848.55;2939626;79;21444;-85
2022/10/22 00:45:27;;;;;;;13.93;9.75;;;;;;;12.34;100.00;99834.53;2938768;79;20971;-85
2022/10/22 00:49:28;;;;;;;19.17;10.20;;;;;;;12.30;99.47;99830.48;2932475;79;21038;-85
2022/10/22 00:53:40;;;;;;;13.08;11.57;;;;;;;12.24;99.85;99831.09;2887582;81;21491;-85
2022/10/22 00:57:44;;;;;;;15.18;11.00;;;;;;;12.23;99.91;99826.23;2939382;79;21003;-85
2022/10/22 01:01:45;;;;;;;19.60;10.55;;;;;;;12.25;100.00;99828.77;2908382;80;21106;-85
2022/10/22 01:05:55;;;;;;;12.47;10.75;;;;;;;12.21;100.00;99836.22;2911039;80;21039;-85
2022/10/22 01:10:14;;;;;;;30.10;11.00;;;;;;;12.22;100.00;99856.55;2941321;79;21082;-85
2022/10/22 01:14:46;;;;;;;18.92;11.80;;;;;;;12.27;100.00;99885.45;2866595;81;21089;-85
2022/10/22 01:18:59;;;;;;;16.32;10.53;;;;;;;12.26;100.00;99881.94;2884064;81;21025;-85
2022/10/22 01:23:25;;;;;;;14.15;11.57;;;;;;;12.18;100.00;99850.33;2851578;82;21077;-85
2022/10/22 01:27:45;;;;;;;;;;;;;;;12.14;100.00;99842.63;2921957;79;21160;-84
2022/10/22 01:32:11;;;;;;;15.32;11.25;;;;;;;12.11;100.00;99872.76;2814000;83;20105;-85
2022/10/22 01:36:13;;;;;;;;;;;;;;;12.07;100.00;99836.69;2847539;82;21652;-85
2022/10/22 01:40:15;;;;;;;16.55;10.93;;;;;;;12.09;100.00;99829.41;2922003;80;20124;-85
2022/10/22 01:44:29;;;;;;;14.35;11.22;;;;;;;12.13;100.00;99836.95;2923865;79;21019;-85
2022/10/22 01:48:56;;;;;;;13.95;10.38;;;;;;;12.10;100.00;99838.58;2931468;80;21013;-84
2022/10/22 01:53:20;;;;;;;12.00;10.70;;;;;;;12.10;100.00;99835.09;2889937;81;20991;-85
2022/10/22 01:57:47;;;;;;;12.43;9.88;;;;;;;12.07;100.00;99815.36;2846456;81;21022;-85
2022/10/22 02:02:22;;;;;;;9.55;8.65;;;;;;;12.02;100.00;99813.64;2844981;81;21045;-85
2022/10/22 02:06:24;;;;;;;21.65;11.45;;;;;;;11.97;100.00;99808.70;2894496;80;20974;-85
2022/10/22 02:10:29;;;;;;;12.45;10.70;;;;;;;11.94;100.00;99804.53;2863123;81;20971;-85
2022/10/22 02:14:32;;;;;;;16.45;11.68;;;;;;;11.92;100.00;99817.64;2872046;82;21180;-85
2022/10/22 02:18:37;;;;;;;18.07;11.80;;;;;;;11.90;100.00;99826.28;2873215;81;21623;-85
2022/10/22 02:22:38;;;;;;;14.90;10.58;;;;;;;11.83;100.00;99828.20;2896591;81;21056;-85
2022/10/22 02:27:03;;;;;;;14.95;10.50;;;;;;;11.81;100.00;99833.33;2841066;82;21091;-84
2022/10/22 02:31:13;;;;;;;14.63;10.40;;;;;;;11.74;100.00;99837.56;2860422;81;21063;-85
2022/10/22 02:35:19;;;;;;;13.98;9.38;;;;;;;11.69;100.00;99844.17;2894065;80;21538;-85
2022/10/22 02:39:20;;;;;;;16.48;10.25;;;;;;;11.66;100.00;99824.45;2888601;80;20948;-85
2022/10/22 02:43:24;;;;;;;11.75;9.80;;;;;;;11.66;100.00;99811.64;2922692;80;20986;-85
2022/10/22 02:47:25;;;;;;;13.22;9.40;;;;;;;11.74;100.00;99800.26;2912993;80;21019;-85
2022/10/22 02:51:26;;;;;;;18.65;11.33;;;;;;;11.74;100.00;99803.75;2921357;80;21038;-84
2022/10/22 02:55:27;;;;;;;15.45;11.00;;;;;;;11.73;100.00;99805.24;2927573;79;21097;-85
2022/10/22 02:59:28;;;;;;;13.78;10.30;;;;;;;11.73;100.00;99812.73;2842873;80;21077;-85
2022/10/22 03:03:30;;;;;;;18.75;9.45;;;;;;;11.77;100.00;99814.11;2896761;81;21541;-85
2022/10/22 03:07:31;;;;;;;13.35;8.90;;;;;;;11.84;100.00;99818.37;2881689;81;20998;-85
2022/10/22 03:11:32;;;;;;;13.80;8.80;;;;;;;11.92;100.00;99810.50;2880196;81;21143;-85
2022/10/22 03:15:33;;;;;;;12.05;9.48;;;;;;;11.98;100.00;99825.91;2941753;80;21537;-85
2022/10/22 03:19:34;;;;;;;18.00;12.10;;;;;;;12.05;100.00;99829.34;2841228;81;21619;-85
2022/10/22 03:23:38;;;;;;;19.52;10.88;;;;;;;12.08;100.00;99832.55;2861919;80;21378;-85
2022/10/22 03:27:40;;;;;;;12.47;7.62;;;;;;;12.11;100.00;99835.44;2879109;81;21049;-85
2022/10/22 03:31:41;;;;;;;8.85;7.90;;;;;;;12.13;100.00;99828.13;2886435;81;21480;-85
2022/10/22 03:35:45;;;;;;;12.07;9.23;;;;;;;12.17;100.00;99829.98;2817085;81;21066;-85
2022/10/22 03:39:47;;;;;;;14.28;9.10;;;;;;;12.17;100.00;99838.84;2882545;80;21524;-85
2022/10/22 03:43:51;;;;;;;12.37;9.40;;;;;;;12.20;100.00;99831.05;2874464;81;21500;-84
2022/10/22 03:47:51;;;;;;;14.03;8.40;;;;;;;12.24;100.00;99823.09;2879617;81;21055;-85
2022/10/22 03:51:52;;;;;;;12.25;9.78;;;;;;;12.35;100.00;99837.55;2928392;79;20995;-85
2022/10/22 03:55:53;;;;;;;13.93;8.95;;;;;;;12.36;100.00;99829.88;2937202;79;21379;-85
2022/10/22 03:59:54;;;;;;;14.38;8.65;;;;;;;12.39;100.00;99824.28;2908574;80;21014;-85
2022/10/22 04:03:56;;;;;;;9.68;8.58;;;;;;;12.42;100.00;99823.98;2925710;80;20979;-85
2022/10/22 04:07:57;;;;;;;10.28;8.53;;;;;;;12.47;100.00;99826.69;2908602;80;21213;-85
2022/10/22 04:11:59;;;;;;;11.18;7.42;;;;;;;12.47;100.00;99822.17;2927324;79;21074;-85
2022/10/22 04:16:14;;;;;;;14.18;9.63;;;;;;;12.49;100.00;99815.37;2931879;80;21325;-85
2022/10/22 04:20:15;;;;;;;16.73;9.15;;;;;;;12.51;100.00;99814.23;2925959;80;21066;-85
2022/10/22 04:24:16;;;;;;;10.15;8.65;;;;;;;12.51;100.00;99817.39;2923974;80;21082;-85
2022/10/22 04:28:17;;;;;;;13.90;10.13;;;;;;;12.52;100.00;99809.73;2903573;81;21325;-85
2022/10/22 04:32:18;;;;;;;13.83;9.30;;;;;;;12.55;100.00;99808.94;2912197;80;21034;-85
2022/10/22 04:36:20;;;;;;;13.83;8.43;;;;;;;12.55;100.00;99826.77;2889477;80;21049;-85
2022/10/22 04:40:21;;;;;;;10.80;8.08;;;;;;;12.55;100.00;99839.63;2900235;80;21054;-85
2022/10/22 04:44:22;;;;;;;13.00;9.20;;;;;;;12.56;100.00;99847.11;2910977;80;21082;-85
2022/10/22 04:48:23;;;;;;;12.23;9.60;;;;;;;12.56;100.00;99837.78;2896477;81;21066;-85
2022/10/22 04:52:24;;;;;;;11.65;8.58;;;;;;;12.56;100.00;99840.44;2908194;81;21002;-85
2022/10/22 04:56:29;;;;;;;11.30;9.33;;;;;;;12.56;100.00;99840.44;2911857;80;21570;-85
2022/10/22 05:00:30;;;;;;;8.73;6.95;;;;;;;12.61;100.00;99839.52;2896184;80;21519;-85
2022/10/22 05:04:31;;;;;;;9.73;8.03;;;;;;;12.61;100.00;99838.67;2906613;80;21052;-85
2022/10/22 05:08:33;;;;;;;9.70;7.03;;;;;;;12.64;100.00;99835.22;2903556;80;21034;-85
2022/10/22 05:12:34;;;;;;;13.30;7.75;;;;;;;12.68;100.00;99835.25;2878698;80;21014;-85
2022/10/22 05:16:36;;;;;;;13.93;8.03;;;;;;;12.67;100.00;99837.58;2898973;79;20995;-85
2022/10/22 05:20:41;;;;;;;10.15;8.03;;;;;;;12.70;100.00;99851.95;2936027;80;21001;-85
2022/10/22 05:24:42;;;;;;;10.00;7.72;;;;;;;12.71;100.00;99860.30;2853285;80;21038;-85
2022/10/22 05:28:45;;;;;;;10.10;8.68;;;;;;;12.78;100.00;99867.72;2942836;80;21015;-85
2022/10/22 05:32:46;;;;;;;9.70;7.75;;;;;;;12.84;100.00;99883.12;2862449;81;21048;-85
2022/10/22 05:36:47;;;;;;;11.83;7.03;;;;;;;12.84;100.00;99887.95;2884944;81;21033;-85
2022/10/22 05:41:00;;;;;;;10.48;8.05;;;;;;;12.86;100.00;99887.30;2837877;82;21018;-85
2022/10/22 05:45:02;;;;;;;15.72;8.85;;;;;;;12.86;100.00;99901.16;2904411;79;21089;-84
2022/10/22 05:49:05;;;;;;;10.93;7.40;;;;;;;12.90;100.00;99901.71;2927966;79;21066;-85
2022/10/22 05:53:07;;;;;;;12.65;9.60;;;;;;;12.93;100.00;99898.22;2915391;80;21069;-85
2022/10/22 05:57:08;;;;;;;16.10;9.00;;;;;;;12.99;100.00;99896.31;2854000;82;20996;-85
2022/10/22 06:01:19;;;;;;;10.85;9.70;;;;;;;13.10;100.00;99910.41;2860119;80;21039;-85
2022/10/22 06:05:20;;;;;;;13.98;9.15;;;;;;;13.26;100.00;99906.56;2880521;82;21608;-85
2022/10/22 06:09:32;;;;;;;13.18;9.10;;;;;;;13.26;100.00;99895.88;2911832;80;21058;-85
2022/10/22 06:13:33;;;;;;;12.47;8.90;;;;;;;13.18;100.00;99906.98;2903336;80;20975;-85
2022/10/22 06:17:35;;;;;;;15.30;8.03;;;;;;;13.31;100.00;99908.79;2882608;81;21145;-85
2022/10/22 06:21:36;;;;;;;15.25;8.85;;;;;;;13.41;100.00;99902.03;2882122;81;21059;-85
2022/10/22 06:25:37;;;;;;;10.65;8.03;;;;;;;13.50;100.00;99897.11;2933804;79;20975;-85
2022/10/22 06:29:39;;;;;;;13.85;10.55;;;;;;;13.65;100.00;99889.38;2926641;79;21109;-85
2022/10/22 06:33:43;;;;;;;16.90;9.30;;;;;;;13.75;100.00;99885.27;2933567;80;21062;-85
2022/10/22 06:37:46;;;;;;;16.73;8.68;;;;;;;13.80;100.00;99896.35;2895147;80;21563;-85
2022/10/22 06:41:47;;;;;;;12.50;8.93;;;;;;;13.73;100.00;99908.64;2893007;81;21110;-85
2022/10/22 06:45:48;;;;;;;14.60;9.55;;;;;;;13.73;100.00;99912.66;2886004;80;21006;-85
2022/10/22 06:49:49;;;;;;;15.88;9.88;;;;;;;13.75;100.00;99905.31;2849211;82;21066;-85
2022/10/22 06:53:50;;;;;;;19.35;8.93;;;;;;;13.82;100.00;99915.74;2848621;81;21111;-85
2022/10/22 06:57:51;;;;;;;12.63;9.58;;;;;;;13.95;100.00;99922.49;2844079;81;21059;-85
2022/10/22 07:01:53;;;;;;;11.43;9.30;;;;;;;14.08;100.00;99930.95;2895916;80;21065;-85
2022/10/22 07:05:54;;;;;;;19.32;11.97;;;;;;;14.20;100.00;99937.38;2940598;79;21574;-85
2022/10/22 07:09:55;;;;;;;14.55;9.33;;;;;;;14.22;100.00;99932.19;2868512;81;21043;-84
2022/10/22 07:13:59;;;;;;;14.28;9.75;;;;;;;14.26;100.00;99928.72;2869100;82;21056;-85
2022/10/22 07:18:00;;;;;;;18.75;11.43;;;;;;;14.21;100.00;99936.38;2857780;81;21086;-85
2022/10/22 07:22:01;;;;;;;18.62;12.35;;;;;;;14.24;100.00;99931.53;2921121;80;21087;-85
2022/10/22 07:26:05;;;;;;;12.65;10.35;;;;;;;14.24;100.00;99916.82;2921970;80;20984;-85
2022/10/22 07:30:09;;;;;;;18.95;11.57;;;;;;;14.26;100.00;99920.20;2926414;80;21029;-85
2022/10/22 07:34:10;;;;;;;15.40;11.35;;;;;;;14.30;100.00;99917.20;2884546;81;21093;-85
2022/10/22 07:38:11;;;;;;;16.30;10.28;;;;;;;14.33;100.00;99922.23;2891903;81;21059;-85
2022/10/22 07:42:12;;;;;;;21.68;12.25;;;;;;;14.38;100.00;99923.92;2908541;80;21074;-85
2022/10/22 07:46:13;;;;;;;19.62;12.68;;;;;;;14.46;100.00;99932.01;2906886;80;21338;-85
2022/10/22 07:50:15;;;;;;;24.67;12.13;;;;;;;14.55;100.00;99935.05;2868661;81;21019;-85
2022/10/22 07:54:18;;;;;;;19.00;11.70;;;;;;;14.58;100.00;99929.88;2847136;82;21047;-85
2022/10/22 07:58:21;;;;;;;16.12;11.93;;;;;;;14.55;100.00;99944.93;2805127;81;21070;-85
2022/10/22 08:02:23;;;;;;;20.85;11.45;;;;;;;14.57;100.00;99954.45;2908099;81;20967;-85
2022/10/22 08:06:25;;;;;;;16.82;11.83;;;;;;;14.57;100.00;99948.28;2884881;79;21042;-85
2022/10/22 08:10:26;;;;;;;22.98;12.53;;;;;;;14.52;100.00;99955.93;2890856;79;21061;-85
2022/10/22 08:14:27;;;;;;;18.37;12.10;;;;;;;14.54;100.00;99947.23;2902337;80;21047;-85
2022/10/22 08:18:29;;;;;;;18.70;10.70;;;;;;;14.57;100.00;99954.97;2930705;80;21059;-85
2022/10/22 08:22:30;;;;;;;18.20;12.00;;;;;;;14.56;100.00;99964.83;2916051;79;21048;-85
2022/10/22 08:26:31;;;;;;;21.00;13.50;;;;;;;14.57;100.00;99969.18;2931598;80;21061;-85
2022/10/22 08:30:36;;;;;;;19.27;13.00;;;;;;;14.58;100.00;99978.06;2902065;80;21057;-85
2022/10/22 08:34:36;;;;;;;22.05;14.20;;;;;;;14.57;100.00;99993.78;2923601;80;21023;-85
2022/10/22 08:38:37;;;;;;;20.20;13.05;;;;;;;14.56;100.00;99989.43;2764038;82;21036;-85
2022/10/22 08:43:12;;;;;;;20.40;13.43;;;;;;;14.55;100.00;99970.36;2923562;80;20964;-85
2022/10/22 08:47:40;;;;;;;20.57;12.53;;;;;;;14.57;100.00;99969.70;2822463;81;21698;-85
2022/10/22 08:51:41;;;;;;;24.32;13.90;;;;;;;14.48;100.00;99965.28;2918648;80;21183;-84
2022/10/22 08:55:43;;;;;;;23.65;15.03;;;;;;;14.42;100.00;99975.63;2879009;81;21078;-85
2022/10/22 09:00:03;;;;;;;26.60;13.40;;;;;;;14.41;100.00;99981.13;2859109;82;21097;-85
2022/10/22 09:04:24;;;;;;;18.70;11.68;;;;;;;14.37;100.00;99982.45;2922072;80;21034;-85
2022/10/22 09:08:24;;;;;;;20.70;12.90;;;;;;;14.34;100.00;99976.08;2864239;81;21568;-85
2022/10/22 09:12:27;;;;;;;29.20;13.72;;;;;;;14.33;100.00;99992.62;2868555;82;21632;-85
2022/10/22 09:17:00;;;;;;;24.05;13.65;;;;;;;14.36;100.00;99999.50;2854578;81;21073;-85
2022/10/22 09:21:15;;;;;;;23.10;13.85;;;;;;;14.33;100.00;99995.30;2943712;79;21043;-85
2022/10/22 09:25:30;;;;;;;21.30;13.28;;;;;;;14.35;100.00;100003.17;2925292;80;21068;-85
2022/10/22 09:29:33;;;;;;;19.37;13.32;;;;;;;14.36;100.00;100011.06;2903264;80;21057;-85
2022/10/22 09:33:34;;;;;;;30.75;15.65;;;;;;;14.40;100.00;100010.22;2935269;80;21077;-85
2022/10/22 09:37:35;;;;;;;20.45;13.08;;;;;;;14.47;100.00;100022.48;2876949;81;21496;-85
2022/10/22 09:41:37;;;;;;;26.20;14.50;;;;;;;14.52;100.00;100008.97;2899374;81;21611;-85
2022/10/22 09:45:39;;;;;;;30.10;16.32;;;;;;;14.56;100.00;100014.86;2862486;81;21027;-85
2022/10/22 09:49:41;;;;;;;24.05;14.33;;;;;;;14.69;100.00;100018.44;2933288;80;21050;-85
2022/10/22 09:53:46;;;;;;;25.60;15.40;;;;;;;14.80;100.00;100037.43;2896404;80;21035;-85
2022/10/22 09:57:58;;;;;;;26.40;15.80;;;;;;;14.87;100.00;100024.25;2898997;80;21092;-85
2022/10/22 10:02:13;;;;;;;24.00;14.15;;;;;;;15.05;100.00;100029.49;2931624;80;21413;-85
2022/10/22 10:06:18;;;;;;;23.45;14.28;;;;;;;15.12;100.00;100023.33;2866301;81;21422;-85
2022/10/22 10:10:31;;;;;;;16.82;12.90;;;;;;;15.13;100.00;100026.34;2881151;81;21032;-85
2022/10/22 10:15:01;;;;;;;24.18;14.63;;;;;;;15.17;100.00;100030.04;2937207;80;20995;-86
2022/10/22 10:19:35;;;;;;;19.60;13.25;;;;;;;15.24;100.00;100027.06;2821735;82;21380;-85
2022/10/22 10:23:51;;;;;;;22.10;15.40;;;;;;;15.35;100.00;100015.20;2922929;80;21042;-85
2022/10/22 10:28:26;;;;;;;19.35;13.90;;;;;;;15.47;100.00;100017.07;2943759;79;20999;-85
2022/10/22 10:33:02;;;;;;;18.65;12.43;;;;;;;15.65;100.00;100011.56;2864177;80;21058;-85
2022/10/22 10:37:29;;;;;;;20.03;13.87;;;;;;;15.82;100.00;100022.64;2873557;82;21045;-85
2022/10/22 10:41:39;;;;;;;20.27;12.05;;;;;;;15.96;100.00;100010.95;2910028;80;21163;-85
2022/10/22 10:45:58;;;;;;;21.30;13.28;;;;;;;15.98;100.00;100003.56;2938673;79;21543;-85
2022/10/22 10:50:14;;;;;;;13.58;9.73;;;;;;;16.04;100.00;100014.13;2904428;79;21574;-85
2022/10/22 10:54:36;;;;;;;10.50;8.08;;;;;;;16.01;100.00;100016.64;2896531;80;21523;-85
2022/10/22 10:59:02;;;;;;;6.90;5.22;;;;;;;15.95;100.00;100011.44;2909506;80;21554;-85
2022/10/22 11:03:49;;;;;;;5.08;3.85;;;;;;;15.91;100.00;100013.27;2891784;80;21114;-85
2022/10/22 11:07:58;;;;;;;4.00;2.65;;;;;;;15.91;100.00;100017.30;2934813;78;20972;-84
2022/10/22 11:12:03;;;;;;;4.78;2.87;;;;;;;15.81;100.00;100014.74;2911098;81;21030;-85
2022/10/22 11:16:43;;;;;;;5.95;3.77;;;;;;;15.70;100.00;100021.27;2900653;80;21604;-85
2022/10/22 11:20:53;;;;;;;3.20;2.80;;;;;;;15.62;100.00;100015.91;2903564;80;21098;-85
2022/10/22 11:25:21;;;;;;;6.47;2.92;;;;;;;15.50;100.00;100020.23;2896847;80;21082;-85
2022/10/22 11:29:30;;;;;;;3.00;2.27;;;;;;;15.25;100.00;100017.51;2893191;80;21077;-85
2022/10/22 11:34:02;;;;;;;3.90;1.57;;;;;;;14.96;100.00;100008.05;2890913;81;21030;-85
2022/10/22 11:38:08;;;;;;;2.70;2.08;;;;;;;14.89;100.00;100005.66;2932511;79;21145;-86
2022/10/22 11:42:20;;;;;;;3.87;3.17;;;;;;;14.78;100.00;100003.28;2937050;80;21044;-85
2022/10/22 11:46:36;;;;;;;8.38;3.92;;;;;;;14.78;100.00;100004.11;2929451;80;21344;-86
2022/10/22 11:50:58;;;;;;;4.80;3.08;;;;;;;14.80;100.00;100003.95;2874996;82;21019;-85
2022/10/22 11:55:06;;;;;;;6.25;3.70;;;;;;;14.83;100.00;100008.98;2907276;80;21126;-85
2022/10/22 11:59:30;;;;;;;4.92;3.77;;;;;;;14.92;100.00;100017.90;2922746;80;21011;-85
2022/10/22 12:03:42;;;;;;;3.80;2.42;;;;;;;14.99;100.00;100022.94;2945969;80;21081;-85
2022/10/22 12:07:58;;;;;;;5.10;2.47;;;;;;;15.00;100.00;100016.58;2919124;79;21617;-85
2022/10/22 12:12:15;;;;;;;7.60;2.77;;;;;;;15.01;100.00;100020.11;2939878;79;21043;-85
2022/10/22 12:16:19;;;;;;;2.98;2.75;;;;;;;15.07;100.00;100015.44;2870749;82;21079;-85
2022/10/22 12:20:24;;;;;;;4.65;2.52;;;;;;;15.20;100.00;100010.47;2856509;82;21124;-85
2022/10/22 12:24:33;;;;;;;3.20;2.37;;;;;;;15.23;100.00;100006.60;2943320;79;21062;-85
2022/10/22 12:28:40;;;;;;;4.40;3.12;;;;;;;15.34;100.00;100012.19;2933745;79;21027;-85
2022/10/22 12:32:41;;;;;;;4.17;3.42;;;;;;;15.39;100.00;100002.63;2890249;80;21043;-85
2022/10/22 12:36:45;;;;;;;4.12;3.22;;;;;;;15.55;100.00;100001.84;2922898;80;20984;-85
2022/10/22 12:40:49;;;;;;;6.03;4.15;;;;;;;15.65;100.00;100007.53;2941619;79;21044;-85
2022/10/22 12:44:55;;;;;;;4.28;3.85;;;;;;;15.75;100.00;100006.89;2935855;79;21082;-85
2022/10/22 12:49:03;;;;;;;7.50;4.22;;;;;;;15.75;100.00;100004.70;2921833;80;21580;-84
2022/10/22 12:53:12;;;;;;;8.03;6.22;;;;;;;15.78;100.00;100000.33;2920011;79;21019;-85
2022/10/22 12:57:17;;;;;;;7.30;5.10;;;;;;;15.79;100.00;100003.34;2882084;80;21769;-85
2022/10/22 13:01:19;;;;;;;6.97;4.83;;;;;;;15.76;100.00;100004.55;2864840;81;21030;-85
2022/10/22 13:05:26;;;;;;;9.50;5.05;;;;;;;15.81;100.00;100007.55;2916044;80;20979;-84
2022/10/22 13:09:39;;;;;;;8.43;5.20;;;;;;;15.82;100.00;100015.94;2918363;80;21047;-85
2022/10/22 13:13:44;;;;;;;8.33;6.20;;;;;;;15.83;100.00;100014.10;2937473;79;21089;-84
2022/10/22 13:17:50;;;;;;;8.38;5.80;;;;;;;15.81;100.00;100015.59;2900788;79;21023;-84
2022/10/22 13:21:53;;;;;;;7.45;5.92;;;;;;;15.78;100.00;100024.47;2931625;80;20988;-84
2022/10/22 13:26:11;;;;;;;8.05;5.37;;;;;;;15.79;100.00;100027.00;2918824;80;21058;-84
2022/10/22 13:30:27;;;;;;;11.97;5.80;;;;;;;15.84;100.00;100022.48;2915264;79;21562;-84
2022/10/22 13:34:32;;;;;;;5.67;4.55;;;;;;;15.82;100.00;100028.00;2936239;80;21097;-84
2022/10/22 13:38:33;;;;;;;7.92;7.08;;;;;;;15.75;100.00;100031.02;2848958;81;21052;-84
2022/10/22 13:42:34;;;;;;;7.75;5.95;;;;;;;15.79;100.00;100029.68;2933995;80;21047;-85
2022/10/22 13:46:41;;;;;;;6.08;5.25;;;;;;;15.67;100.00;100033.67;2928183;80;21601;-85
2022/10/22 13:50:40;;;;;;;6.50;5.12;;;;;;;15.64;100.00;100038.03;2919011;80;21517;-85
2022/10/22 13:54:41;;;;;;;6.97;4.78;;;;;;;15.71;100.00;100045.74;2885565;81;21016;-85
2022/10/22 13:59:41;;;;;;;8.63;5.42;;;;;;;15.74;100.00;100047.27;2889190;80;21027;-85
2022/10/22 14:03:43;;;;;;;7.37;5.78;;;;;;;15.68;100.00;100047.41;2919101;80;21045;-85
2022/10/22 14:07:44;;;;;;;6.87;5.85;;;;;;;15.67;100.00;100051.95;2870529;81;21090;-85
2022/10/22 14:11:46;;;;;;;9.98;6.12;;;;;;;15.69;100.00;100050.44;2923520;79;21008;-85
2022/10/22 14:15:50;;;;;;;7.03;5.65;;;;;;;15.69;100.00;100047.27;2834292;81;21038;-85
2022/10/22 14:19:51;;;;;;;9.15;6.87;;;;;;;15.66;100.00;100053.45;2890928;81;21706;-85
2022/10/22 14:23:53;;;;;;;11.40;5.90;;;;;;;15.77;100.00;100053.14;2890562;81;21720;-85
2022/10/22 14:27:55;;;;;;;7.75;6.10;;;;;;;15.78;100.00;100052.14;2860670;80;21093;-85
2022/10/22 14:31:56;;;;;;;8.08;6.70;;;;;;;15.81;100.00;100058.50;2865485;81;21035;-85
2022/10/22 14:35:59;;;;;;;7.42;6.30;;;;;;;15.82;100.00;100066.89;2874715;80;21105;-84
2022/10/22 14:40:01;;;;;;;8.93;7.10;;;;;;;15.90;100.00;100066.09;2908439;80;21078;-85
2022/10/22 14:44:03;;;;;;;11.12;6.10;;;;;;;15.80;100.00;100066.22;2890525;81;21019;-85
2022/10/22 14:48:05;;;;;;;8.53;6.75;;;;;;;15.89;100.00;100063.08;2872333;81;21066;-85
2022/10/22 14:52:06;;;;;;;9.95;7.03;;;;;;;15.91;100.00;100078.50;2890367;80;21355;-85
2022/10/22 14:56:12;;;;;;;8.98;7.45;;;;;;;15.89;100.00;100070.27;2789190;81;21075;-85
2022/10/22 15:00:16;;;;;;;8.00;7.25;;;;;;;15.88;100.00;100081.48;2890918;80;21077;-84
2022/10/22 15:04:17;;;;;;;6.83;6.08;;;;;;;15.84;100.00;100083.65;2946364;80;21024;-85
2022/10/22 15:08:19;;;;;;;9.38;6.78;;;;;;;15.87;100.00;100082.98;2850598;82;21034;-85
2022/10/22 15:12:20;;;;;;;8.55;7.30;;;;;;;15.90;100.00;100084.87;2898912;81;21030;-85
2022/10/22 15:16:21;;;;;;;10.63;6.90;;;;;;;15.89;100.00;100087.22;2886988;80;21042;-85
2022/10/22 15:24:44;;;;;;;10.65;6.92;;;;;;;15.88;100.00;100090.02;2950243;78;21058;-85
2022/10/22 15:28:46;;;;;;;10.05;7.92;;;;;;;15.94;100.00;100093.43;2971724;77;21036;-84
2022/10/22 15:32:47;;;;;;;8.55;6.80;;;;;;;15.93;100.00;100093.92;2985078;77;21187;-85
2022/10/22 15:36:48;;;;;;;8.00;7.03;;;;;;;15.93;100.00;100098.46;2983066;77;21042;-85
2022/10/22 15:41:00;;;;;;;9.73;6.55;;;;;;;15.96;100.00;100103.48;2980333;78;20961;-85
2022/10/22 15:45:02;;;;;;;8.98;6.58;;;;;;;15.91;100.00;100110.69;2976737;78;21090;-85
2022/10/22 15:49:03;;;;;;;6.70;5.83;;;;;;;15.93;100.00;100111.87;3025887;76;21030;-85
2022/10/22 15:53:05;;;;;;;8.50;6.72;;;;;;;15.94;100.00;100114.38;2866305;78;21066;-85
2022/10/22 15:57:07;;;;;;;9.05;7.05;;;;;;;15.99;100.00;100115.23;3019260;77;21042;-85
2022/10/22 16:01:12;;;;;;;8.68;6.50;;;;;;;16.02;100.00;100116.23;3012906;76;20996;-85
2022/10/22 16:05:13;;;;;;;9.53;7.80;;;;;;;16.01;100.00;100121.27;2927067;78;21506;-85
2022/10/22 16:09:20;;;;;;;10.23;6.37;;;;;;;16.00;100.00;100126.30;2957762;78;21051;-85
2022/10/22 16:13:23;;;;;;;7.00;5.25;;;;;;;15.99;100.00;100135.34;3016620;76;21074;-85
2022/10/22 16:17:24;;;;;;;7.62;5.62;;;;;;;16.00;100.00;100145.07;3008360;76;21390;-85
2022/10/22 16:21:26;;;;;;;6.37;5.22;;;;;;;16.00;100.00;100145.07;2996542;77;21328;-85
2022/10/22 16:25:27;;;;;;;10.13;5.87;;;;;;;15.95;100.00;100156.28;3016828;76;20963;-85
2022/10/22 16:29:28;;;;;;;8.20;5.85;;;;;;;15.95;100.00;100162.17;3002655;77;21002;-85
2022/10/22 16:33:31;;;;;;;9.35;5.95;;;;;;;15.96;100.00;100162.50;2982761;77;21073;-85
2022/10/22 16:37:33;;;;;;;13.18;6.37;;;;;;;15.93;100.00;100160.98;2984044;77;21009;-85
2022/10/22 16:41:35;;;;;;;7.60;5.97;;;;;;;15.95;100.00;100166.19;2963496;78;24673;-85
2022/10/22 16:45:36;;;;;;;6.55;4.50;;;;;;;15.97;100.00;100177.59;2929292;78;21340;-85
2022/10/22 16:49:37;;;;;;;7.53;6.17;;;;;;;15.91;100.00;100184.94;2985418;77;21014;-85
2022/10/22 16:53:38;;;;;;;9.28;6.25;;;;;;;15.88;100.00;100187.43;2979596;78;21049;-85
2022/10/22 16:57:39;;;;;;;9.53;7.08;;;;;;;15.81;100.00;100195.28;2990667;78;21677;-85
2022/10/22 17:01:40;;;;;;;6.83;5.97;;;;;;;15.78;100.00;100198.29;2979865;77;21085;-85
2022/10/22 17:05:42;;;;;;;7.03;5.37;;;;;;;15.78;100.00;100208.16;2993853;77;21026;-85
2022/10/22 17:09:43;;;;;;;7.67;6.22;;;;;;;15.79;100.00;100216.06;2980355;78;21066;-85
2022/10/22 17:13:47;;;;;;;6.15;5.33;;;;;;;15.79;100.00;100216.06;2945388;77;20995;-85
2022/10/22 17:17:52;;;;;;;8.43;6.45;;;;;;;15.77;100.00;100212.70;3017504;77;21165;-85
2022/10/22 17:21:52;;;;;;;8.70;5.70;;;;;;;15.76;100.00;100221.75;3010762;77;21168;-85
2022/10/22 17:26:06;;;;;;;6.10;4.60;;;;;;;15.75;100.00;100220.56;3001241;77;21026;-85
2022/10/22 17:30:14;;;;;;;7.40;5.78;;;;;;;15.76;100.00;100220.41;2999166;78;21066;-85
2022/10/22 17:34:16;;;;;;;15.63;6.37;;;;;;;15.81;100.00;100223.44;3025648;76;21014;-85
2022/10/22 17:38:17;;;;;;;5.70;4.60;;;;;;;15.79;100.00;100220.08;3020943;77;21038;-85
2022/10/22 17:42:18;;;;;;;10.03;4.87;;;;;;;15.78;100.00;100230.47;2964991;77;21030;-84
2022/10/22 17:46:26;;;;;;;7.20;5.62;;;;;;;15.73;100.00;100237.31;3019340;77;21034;-85
2022/10/22 17:50:27;;;;;;;7.25;5.37;;;;;;;15.68;100.00;100234.63;2990354;77;21012;-84
2022/10/22 17:54:29;;;;;;;5.78;4.55;;;;;;;15.60;100.00;100247.14;3028348;76;21363;-84
2022/10/22 17:58:30;;;;;;;7.17;5.55;;;;;;;15.50;100.00;100246.74;3012577;76;21507;-84
2022/10/22 18:02:31;;;;;;;5.67;5.17;;;;;;;15.37;100.00;100249.86;3003625;77;21534;-84
2022/10/22 18:06:33;;;;;;;6.20;4.65;;;;;;;15.27;100.00;100248.62;2852983;79;21550;-85
2022/10/22 18:10:40;;;;;;;8.48;5.87;;;;;;;15.17;100.00;100256.42;2959285;75;21035;-85
2022/10/22 18:14:41;;;;;;;8.10;6.25;;;;;;;15.14;100.00;100257.59;2986694;77;21054;-85
2022/10/22 18:18:46;;;;;;;8.23;5.22;;;;;;;15.10;100.00;100257.06;3020647;76;21070;-85
2022/10/22 18:22:47;;;;;;;8.18;6.35;;;;;;;15.10;100.00;100264.23;2993360;77;21007;-85
2022/10/22 18:26:48;;;;;;;8.20;5.92;;;;;;;15.15;100.00;100272.67;2991373;78;21475;-85
2022/10/22 18:30:49;;;;;;;6.90;4.40;;;;;;;15.14;100.00;100266.97;2935971;78;21151;-85
2022/10/22 18:34:50;;;;;;;5.53;5.03;;;;;;;15.10;100.00;100270.45;2996300;77;21140;-85
2022/10/22 18:38:56;;;;;;;8.05;5.25;;;;;;;15.10;100.00;100264.23;2985422;77;21586;-85
2022/10/22 18:42:57;;;;;;;5.03;3.98;;;;;;;15.11;100.00;100264.58;2996574;77;21023;-85
2022/10/22 18:46:58;;;;;;;6.87;4.90;;;;;;;15.07;100.00;100261.88;2998054;77;21047;-85
2022/10/22 18:51:04;;;;;;;6.03;4.87;;;;;;;15.05;100.00;100262.05;2921428;77;21522;-85